Time;durP1;ratioP1;P1;durP2;ratioP2;P2;SDS_P1;SDS_P2;PMS_P1;PMS_P2;Temp;Humidity;BMP_temperature;BMP_pressure;BME280_temperature;BME280_humidity;BME280_pressure;Samples;Min_cycle;Max_cycle;Signal;HPM_P1;HPM_P2
2022/10/12 00:00:31;;;;;;;9.83;5.80;;;9.30;99.90;;;;;;5049277;28;20498;-34
2022/10/12 00:02:58;;;;;;;11.07;5.83;;;9.40;99.90;;;;;;5049410;28;20224;-34
2022/10/12 00:05:28;;;;;;;11.50;5.70;;;9.30;99.90;;;;;;5048680;28;20200;-33
2022/10/12 00:07:55;;;;;;;9.40;5.67;;;9.30;99.90;;;;;;5048615;28;20238;-33
2022/10/12 00:10:22;;;;;;;7.70;5.63;;;9.30;99.90;;;;;;5048653;28;20212;-34
2022/10/12 00:12:49;;;;;;;10.33;5.57;;;9.30;99.90;;;;;;5048388;28;20232;-34
2022/10/12 00:15:17;;;;;;;9.07;5.93;;;9.20;99.90;;;;;;5048466;28;20582;-34
2022/10/12 00:17:44;;;;;;;12.53;5.77;;;9.20;99.90;;;;;;5048349;28;20200;-35
2022/10/12 00:20:11;;;;;;;15.23;6.17;;;9.20;99.90;;;;;;5047141;28;20219;-34
2022/10/12 00:22:39;;;;;;;10.03;6.00;;;9.10;99.90;;;;;;5048483;28;20224;-34
2022/10/12 00:25:06;;;;;;;11.23;5.73;;;9.10;99.90;;;;;;5048434;28;20648;-34
2022/10/12 00:27:33;;;;;;;11.57;6.03;;;9.10;99.90;;;;;;5048406;28;20203;-34
2022/10/12 00:30:01;;;;;;;10.80;6.13;;;9.00;99.90;;;;;;5048310;28;20207;-34
2022/10/12 00:32:28;;;;;;;11.87;5.87;;;9.00;99.90;;;;;;5048420;28;20220;-34
2022/10/12 00:34:56;;;;;;;9.27;5.57;;;9.00;99.90;;;;;;5048418;28;20286;-34
2022/10/12 00:37:23;;;;;;;9.00;5.80;;;9.00;99.90;;;;;;5048270;28;20208;-34
2022/10/12 00:39:50;;;;;;;9.77;6.13;;;9.00;99.90;;;;;;5048232;28;20710;-34
2022/10/12 00:42:19;;;;;;;11.13;5.53;;;8.90;99.90;;;;;;5048178;28;20220;-34
2022/10/12 00:44:50;;;;;;;8.97;5.37;;;8.90;99.90;;;;;;5046583;28;20246;-34
2022/10/12 00:47:40;;;;;;;10.43;5.77;;;8.90;99.90;;;;;;5048098;28;20572;-34
2022/10/12 00:50:21;;;;;;;7.90;5.30;;;8.90;99.90;;;;;;5047951;28;20216;-34
2022/10/12 00:53:08;;;;;;;9.53;5.63;;;8.90;99.90;;;;;;5048153;28;20192;-33
2022/10/12 00:55:45;;;;;;;8.10;5.20;;;8.90;99.90;;;;;;5048315;28;20232;-34
2022/10/12 00:58:15;;;;;;;10.80;5.83;;;8.80;99.90;;;;;;5046931;28;20244;-33
2022/10/12 01:00:43;;;;;;;10.77;5.40;;;8.80;99.90;;;;;;5047695;28;20259;-33
2022/10/12 01:03:14;;;;;;;10.90;5.67;;;8.80;99.90;;;;;;5047613;28;20690;-34
2022/10/12 01:05:41;;;;;;;8.67;5.40;;;8.80;99.90;;;;;;5047675;28;20239;-33
2022/10/12 01:08:09;;;;;;;9.57;5.23;;;8.80;99.90;;;;;;5047410;28;20244;-33
2022/10/12 01:10:36;;;;;;;9.80;5.80;;;8.80;99.90;;;;;;5047787;28;20207;-34
2022/10/12 01:13:03;;;;;;;10.03;5.60;;;8.80;99.90;;;;;;5047785;28;20378;-34
2022/10/12 01:15:43;;;;;;;12.60;5.53;;;8.70;99.90;;;;;;5047426;28;20203;-33
2022/10/12 01:18:38;;;;;;;11.30;5.43;;;8.70;99.90;;;;;;5047296;28;20240;-33
2022/10/12 01:21:20;;;;;;;9.83;5.33;;;8.70;99.90;;;;;;5047865;28;20203;-33
2022/10/12 01:24:15;;;;;;;10.00;5.13;;;8.70;99.90;;;;;;5052370;28;20205;-34
2022/10/12 01:27:04;;;;;;;8.03;5.43;;;8.60;99.90;;;;;;5051293;28;20346;-33
2022/10/12 01:29:52;;;;;;;8.57;5.07;;;8.60;99.90;;;;;;5047764;28;20220;-33
2022/10/12 01:32:55;;;;;;;9.97;5.67;;;8.60;99.90;;;;;;5047569;28;20536;-34
2022/10/12 01:35:50;;;;;;;13.23;5.23;;;8.60;99.90;;;;;;5047564;28;20211;-33
2022/10/12 01:38:36;;;;;;;9.10;5.57;;;8.50;99.90;;;;;;5047650;28;20315;-34
2022/10/12 01:41:15;;;;;;;10.77;6.27;;;8.50;99.90;;;;;;5047703;28;20224;-34
2022/10/12 01:43:44;;;;;;;10.13;5.77;;;8.50;99.90;;;;;;5047291;28;20230;-34
2022/10/12 01:46:14;;;;;;;12.23;6.13;;;8.50;99.90;;;;;;5047374;28;20726;-34
2022/10/12 01:48:47;;;;;;;10.13;6.00;;;8.50;99.90;;;;;;5047560;28;20185;-33
2022/10/12 01:51:30;;;;;;;12.13;5.40;;;8.50;99.90;;;;;;5047467;28;20200;-33
2022/10/12 01:54:22;;;;;;;9.60;5.60;;;8.50;99.90;;;;;;5047491;28;20734;-33
2022/10/12 01:57:23;;;;;;;9.50;5.70;;;8.40;99.90;;;;;;5062609;28;20184;-33
2022/10/12 01:59:50;;;;;;;9.73;6.10;;;8.40;99.90;;;;;;5047229;28;20200;-33
2022/10/12 02:02:34;;;;;;;11.13;6.00;;;8.40;99.90;;;;;;5047206;28;20227;-34
2022/10/12 02:05:30;;;;;;;10.10;5.60;;;8.40;99.90;;;;;;5047112;28;20200;-33
2022/10/12 02:08:24;;;;;;;13.03;5.57;;;8.30;99.90;;;;;;5045912;28;20227;-33
2022/10/12 02:10:53;;;;;;;8.40;5.70;;;8.30;99.90;;;;;;5045750;28;20205;-35
2022/10/12 02:13:25;;;;;;;8.47;5.43;;;8.20;99.90;;;;;;5045961;28;20588;-34
2022/10/12 02:15:53;;;;;;;13.17;5.50;;;8.20;99.90;;;;;;5047404;28;20616;-34
2022/10/12 02:18:21;;;;;;;8.07;4.80;;;8.20;99.90;;;;;;5047118;28;20254;-33
2022/10/12 02:20:52;;;;;;;11.87;6.40;;;8.20;99.90;;;;;;5050944;28;20204;-33
2022/10/12 02:23:23;;;;;;;11.63;5.17;;;8.10;99.90;;;;;;5050802;28;20212;-33
2022/10/12 02:25:53;;;;;;;8.97;5.20;;;8.10;99.90;;;;;;5050823;28;20667;-33
2022/10/12 02:28:26;;;;;;;12.83;5.20;;;8.10;99.90;;;;;;5050983;28;20596;-33
2022/10/12 02:31:17;;;;;;;9.93;5.13;;;8.10;99.90;;;;;;5050688;28;20275;-34
2022/10/12 02:34:19;;;;;;;14.33;6.00;;;8.00;99.90;;;;;;5050826;28;20270;-34
2022/10/12 02:37:02;;;;;;;6.33;4.80;;;8.00;99.90;;;;;;5050423;28;20216;-33
2022/10/12 02:39:37;;;;;;;8.60;5.30;;;8.00;99.90;;;;;;5050400;28;20582;-34
2022/10/12 02:42:09;;;;;;;8.13;4.80;;;8.00;99.90;;;;;;5050488;28;20216;-34
2022/10/12 02:44:40;;;;;;;9.43;5.60;;;8.00;99.90;;;;;;5065554;28;20695;-33
2022/10/12 02:47:09;;;;;;;10.87;5.87;;;7.90;99.90;;;;;;5050423;28;20219;-33
2022/10/12 02:49:38;;;;;;;10.87;5.43;;;7.90;99.90;;;;;;5050715;28;20291;-34
2022/10/12 02:52:07;;;;;;;8.33;5.03;;;7.90;99.90;;;;;;5065343;28;20218;-34
2022/10/12 02:54:35;;;;;;;7.43;5.03;;;7.90;99.90;;;;;;5050358;28;20323;-34
2022/10/12 02:57:02;;;;;;;9.60;5.10;;;7.90;99.90;;;;;;5048816;28;20208;-34
2022/10/12 02:59:30;;;;;;;7.57;5.20;;;7.80;99.90;;;;;;5050053;28;20261;-34
2022/10/12 03:01:57;;;;;;;10.27;4.90;;;7.80;99.90;;;;;;5050130;28;20260;-35
2022/10/12 03:04:24;;;;;;;9.13;5.53;;;7.80;99.90;;;;;;5050528;28;20201;-35
2022/10/12 03:06:54;;;;;;;8.23;5.33;;;7.80;99.90;;;;;;5050087;28;20227;-35
2022/10/12 03:09:21;;;;;;;8.53;5.83;;;7.80;99.90;;;;;;5050331;28;20628;-35
2022/10/12 03:11:48;;;;;;;10.43;5.60;;;7.80;99.90;;;;;;5050037;28;20613;-34
2022/10/12 03:14:21;;;;;;;9.80;5.17;;;7.70;99.90;;;;;;5049947;28;20289;-35
2022/10/12 03:16:51;;;;;;;9.57;4.93;;;7.70;99.90;;;;;;5050131;28;20222;-34
2022/10/12 03:19:18;;;;;;;10.77;5.43;;;7.70;99.90;;;;;;5049839;28;20247;-35
2022/10/12 03:21:48;;;;;;;10.70;5.77;;;7.70;99.90;;;;;;5049644;28;20220;-35
2022/10/12 03:24:15;;;;;;;9.53;5.00;;;7.70;99.90;;;;;;5050082;28;20750;-34
2022/10/12 03:26:42;;;;;;;9.07;5.40;;;7.70;99.90;;;;;;5049620;28;20204;-34
2022/10/12 03:29:09;;;;;;;9.47;5.53;;;7.70;99.90;;;;;;5049513;28;20593;-34
2022/10/12 03:31:39;;;;;;;7.97;5.33;;;7.70;99.90;;;;;;5049444;28;20193;-34
2022/10/12 03:34:06;;;;;;;9.53;5.73;;;7.70;99.90;;;;;;5049683;28;20683;-35
2022/10/12 03:36:36;;;;;;;9.23;5.77;;;7.70;99.90;;;;;;5049308;28;20204;-34
2022/10/12 03:39:05;;;;;;;9.00;5.57;;;7.70;99.90;;;;;;5048026;28;20226;-34
2022/10/12 03:41:33;;;;;;;11.13;5.73;;;7.70;99.90;;;;;;5049593;28;20204;-34
2022/10/12 03:44:00;;;;;;;8.63;5.23;;;7.70;99.90;;;;;;5049386;28;20220;-34
2022/10/12 03:46:27;;;;;;;13.43;6.73;;;7.70;99.90;;;;;;5047981;28;20212;-34
2022/10/12 03:48:54;;;;;;;12.10;6.17;;;7.70;99.90;;;;;;5049305;28;20200;-35
2022/10/12 03:51:22;;;;;;;10.63;5.80;;;7.70;99.90;;;;;;5049113;28;20346;-34
2022/10/12 03:53:53;;;;;;;10.63;6.67;;;7.70;99.90;;;;;;5049382;28;20220;-35
2022/10/12 03:56:21;;;;;;;12.27;6.17;;;7.70;99.90;;;;;;5049345;28;20196;-35
2022/10/12 03:58:50;;;;;;;9.40;5.53;;;7.70;99.90;;;;;;5048848;28;20299;-34
2022/10/12 04:01:17;;;;;;;13.27;5.80;;;7.70;99.90;;;;;;5049093;28;20263;-34
2022/10/12 04:03:45;;;;;;;11.17;6.30;;;7.70;99.90;;;;;;5048863;28;20223;-35
2022/10/12 04:06:14;;;;;;;9.83;6.03;;;7.70;99.90;;;;;;5048859;28;20204;-34
2022/10/12 04:08:44;;;;;;;10.73;5.17;;;7.70;99.90;;;;;;5047572;28;20567;-34
2022/10/12 04:11:19;;;;;;;8.70;5.37;;;7.70;99.90;;;;;;5049504;28;20244;-32
2022/10/12 04:13:48;;;;;;;11.20;6.03;;;7.70;99.90;;;;;;5048770;28;20207;-32
2022/10/12 04:16:16;;;;;;;9.20;5.50;;;7.70;99.90;;;;;;5048737;28;20204;-32
2022/10/12 04:18:43;;;;;;;12.23;5.97;;;7.70;99.90;;;;;;5048418;28;20289;-32
2022/10/12 04:21:14;;;;;;;10.03;5.80;;;7.70;99.90;;;;;;5047333;28;20270;-32
2022/10/12 04:23:44;;;;;;;12.30;6.40;;;7.70;99.90;;;;;;5048437;28;20597;-32
2022/10/12 04:26:13;;;;;;;11.20;5.73;;;7.70;99.90;;;;;;5048610;28;20219;-32
2022/10/12 04:28:41;;;;;;;10.17;6.20;;;7.60;99.90;;;;;;5048368;28;20798;-32
2022/10/12 04:31:10;;;;;;;10.03;5.47;;;7.60;99.90;;;;;;5048616;28;20196;-32
2022/10/12 04:33:38;;;;;;;12.23;5.90;;;7.60;99.90;;;;;;5048589;28;20231;-32
2022/10/12 04:36:06;;;;;;;9.27;5.73;;;7.60;99.90;;;;;;5048307;28;20251;-32
2022/10/12 04:38:33;;;;;;;10.50;5.50;;;7.50;99.90;;;;;;5048196;28;20243;-33
2022/10/12 04:41:00;;;;;;;11.13;6.37;;;7.50;99.90;;;;;;5047006;28;20207;-32
2022/10/12 04:43:28;;;;;;;12.70;5.80;;;7.50;99.90;;;;;;5047906;28;20215;-32
2022/10/12 04:45:57;;;;;;;10.57;6.50;;;7.50;99.90;;;;;;5048317;28;20240;-32
2022/10/12 04:48:25;;;;;;;9.33;5.93;;;7.50;99.90;;;;;;5048223;28;20196;-34
2022/10/12 04:50:53;;;;;;;9.07;6.00;;;7.40;99.90;;;;;;5048289;28;20295;-34
2022/10/12 04:53:20;;;;;;;11.93;6.40;;;7.40;99.90;;;;;;5046756;28;20314;-35
2022/10/12 04:55:47;;;;;;;14.20;6.83;;;7.40;99.90;;;;;;5048513;28;20208;-34
2022/10/12 04:58:14;;;;;;;14.13;5.33;;;7.40;99.90;;;;;;5047936;28;20238;-35
2022/10/12 05:00:44;;;;;;;10.03;5.53;;;7.40;99.90;;;;;;5048132;28;20955;-35
2022/10/12 05:03:11;;;;;;;10.37;6.60;;;7.40;99.90;;;;;;5047765;28;20228;-35
2022/10/12 05:05:38;;;;;;;12.80;6.07;;;7.40;99.90;;;;;;5047946;28;20291;-34
2022/10/12 05:08:06;;;;;;;16.53;6.37;;;7.40;99.90;;;;;;5047849;28;20198;-35
2022/10/12 05:10:33;;;;;;;10.90;6.10;;;7.40;99.90;;;;;;5047824;28;20204;-35
2022/10/12 05:13:00;;;;;;;9.90;5.83;;;7.40;99.90;;;;;;5046601;28;20298;-34
2022/10/12 05:15:27;;;;;;;9.70;6.10;;;7.40;99.90;;;;;;5047747;28;20196;-35
2022/10/12 05:17:55;;;;;;;10.23;6.93;;;7.30;99.90;;;;;;5046190;28;20675;-35
2022/10/12 05:20:22;;;;;;;12.90;6.33;;;7.30;99.90;;;;;;5047759;28;20306;-34
2022/10/12 05:22:49;;;;;;;11.45;6.60;;;7.30;99.90;;;;;;5044936;28;20419;-34
2022/10/12 05:25:18;;;;;;;12.30;6.50;;;7.60;99.90;;;;;;5047497;28;20196;-34
2022/10/12 05:27:46;;;;;;;9.77;6.33;;;7.50;99.90;;;;;;5047453;28;20215;-34
2022/10/12 05:30:13;;;;;;;14.50;6.10;;;7.50;99.90;;;;;;5047629;28;20841;-34
2022/10/12 05:32:42;;;;;;;14.40;7.00;;;7.50;99.90;;;;;;5047519;28;20200;-35
2022/10/12 05:35:10;;;;;;;10.67;6.53;;;7.40;99.90;;;;;;5046501;28;20622;-34
2022/10/12 05:37:37;;;;;;;10.03;6.57;;;7.40;99.90;;;;;;5048108;28;20223;-34
2022/10/12 05:40:08;;;;;;;10.03;6.03;;;7.40;99.90;;;;;;5046192;28;20199;-34
2022/10/12 05:42:35;;;;;;;13.17;5.90;;;7.30;99.90;;;;;;5048074;28;20218;-34
2022/10/12 05:45:06;;;;;;;14.80;6.50;;;7.30;99.90;;;;;;5047459;28;20277;-34
2022/10/12 05:47:33;;;;;;;10.53;6.20;;;7.30;99.90;;;;;;5047355;28;20219;-34
2022/10/12 05:50:01;;;;;;;11.60;6.50;;;7.30;99.90;;;;;;5047177;28;20204;-34
2022/10/12 05:52:28;;;;;;;11.30;6.57;;;7.30;99.90;;;;;;5047463;28;20208;-34
2022/10/12 05:54:55;;;;;;;18.07;6.93;;;7.30;99.90;;;;;;5048121;28;20292;-34
2022/10/12 05:57:22;;;;;;;11.13;6.50;;;7.30;99.90;;;;;;5051196;28;20223;-34
2022/10/12 05:59:50;;;;;;;13.57;6.50;;;7.20;99.90;;;;;;5051200;28;20204;-34
2022/10/12 06:02:17;;;;;;;17.53;7.20;;;7.20;99.90;;;;;;5050993;28;20279;-34
2022/10/12 06:04:45;;;;;;;18.80;6.97;;;7.20;99.90;;;;;;5049488;28;20235;-34
2022/10/12 06:07:12;;;;;;;21.00;6.90;;;7.20;99.90;;;;;;5050902;28;20674;-34
2022/10/12 06:09:39;;;;;;;17.17;7.20;;;7.20;99.90;;;;;;5050992;28;20213;-34
2022/10/12 06:12:07;;;;;;;14.70;6.60;;;7.20;99.90;;;;;;5051096;28;20310;-34
2022/10/12 06:14:37;;;;;;;19.63;6.53;;;7.20;99.90;;;;;;5050805;28;20294;-34
2022/10/12 06:17:04;;;;;;;10.33;6.43;;;7.10;99.90;;;;;;5050929;28;20256;-34
2022/10/12 06:19:32;;;;;;;11.97;6.73;;;7.10;99.90;;;;;;5050833;28;20240;-34
2022/10/12 06:21:59;;;;;;;11.37;7.00;;;7.10;99.90;;;;;;5051045;28;20252;-34
2022/10/12 06:24:30;;;;;;;13.30;7.07;;;7.10;99.90;;;;;;5050621;28;20216;-34
2022/10/12 06:26:57;;;;;;;12.37;6.60;;;7.10;99.90;;;;;;5051027;28;20585;-34
2022/10/12 06:29:25;;;;;;;12.20;6.57;;;7.10;99.90;;;;;;5050465;28;20207;-34
2022/10/12 06:31:54;;;;;;;13.83;6.90;;;7.10;99.90;;;;;;5050535;28;20222;-34
2022/10/12 06:34:21;;;;;;;14.10;6.50;;;7.10;99.90;;;;;;5050638;28;20208;-34
2022/10/12 06:36:51;;;;;;;14.47;6.40;;;7.20;99.90;;;;;;5050512;28;20211;-34
2022/10/12 06:39:24;;;;;;;12.57;7.00;;;7.20;99.90;;;;;;5050469;28;20216;-34
2022/10/12 06:41:53;;;;;;;12.67;7.27;;;7.20;99.90;;;;;;5050534;28;20255;-34
2022/10/12 06:44:21;;;;;;;16.27;6.10;;;7.20;99.90;;;;;;5050398;28;20212;-34
2022/10/12 06:46:49;;;;;;;12.90;6.43;;;7.20;99.90;;;;;;5050389;28;20200;-34
2022/10/12 06:49:17;;;;;;;15.70;6.70;;;7.30;99.90;;;;;;5050418;28;20209;-34
2022/10/12 06:51:44;;;;;;;13.23;6.03;;;7.30;99.90;;;;;;5050155;28;20208;-34
2022/10/12 06:54:11;;;;;;;14.60;6.10;;;7.30;99.90;;;;;;5050174;28;20224;-34
2022/10/12 06:56:41;;;;;;;10.60;6.67;;;7.30;99.90;;;;;;5050334;28;20512;-34
2022/10/12 06:59:11;;;;;;;16.17;6.87;;;7.30;99.90;;;;;;5032380;28;20295;-34
2022/10/12 07:01:39;;;;;;;14.57;7.40;;;7.30;99.90;;;;;;5064971;28;20200;-35
2022/10/12 07:04:08;;;;;;;13.63;6.97;;;7.40;99.90;;;;;;5049789;28;20886;-34
2022/10/12 07:06:35;;;;;;;13.63;6.97;;;7.40;99.90;;;;;;5064505;28;20663;-34
2022/10/12 07:09:02;;;;;;;12.63;7.23;;;7.40;99.90;;;;;;5049789;28;20228;-35
2022/10/12 07:11:30;;;;;;;18.57;7.77;;;7.40;99.90;;;;;;5049963;28;20204;-34
2022/10/12 07:13:57;;;;;;;14.23;7.23;;;7.50;99.90;;;;;;5049940;28;20251;-34
2022/10/12 07:16:24;;;;;;;13.90;6.87;;;7.50;99.90;;;;;;5064575;28;20214;-35
2022/10/12 07:18:54;;;;;;;13.97;6.87;;;7.50;99.90;;;;;;5049311;28;20710;-34
2022/10/12 07:21:21;;;;;;;12.80;6.50;;;7.50;99.90;;;;;;5049520;28;20713;-36
2022/10/12 07:23:53;;;;;;;13.57;6.67;;;7.60;99.90;;;;;;5049974;28;20220;-35
2022/10/12 07:26:21;;;;;;;15.10;7.17;;;7.60;99.90;;;;;;5049633;28;20231;-34
2022/10/12 07:28:48;;;;;;;13.73;6.40;;;7.70;99.90;;;;;;5048118;28;20212;-36
2022/10/12 07:31:15;;;;;;;16.17;6.27;;;7.70;99.90;;;;;;5047863;28;20287;-34
2022/10/12 07:33:43;;;;;;;13.17;6.53;;;7.70;99.90;;;;;;5048801;28;20253;-34
2022/10/12 07:36:10;;;;;;;12.93;6.20;;;7.70;99.90;;;;;;5064239;28;20338;-34
2022/10/12 07:38:47;;;;;;;11.43;6.37;;;7.80;99.90;;;;;;5049071;28;20232;-34
2022/10/12 07:41:17;;;;;;;11.53;6.57;;;7.80;99.90;;;;;;5049260;28;20204;-34
2022/10/12 07:43:45;;;;;;;13.63;6.40;;;7.90;99.90;;;;;;5063866;28;20216;-34
2022/10/12 07:46:12;;;;;;;16.87;7.00;;;7.90;99.90;;;;;;5064185;28;20666;-34
2022/10/12 07:48:40;;;;;;;13.57;6.57;;;8.00;99.90;;;;;;5047872;28;20366;-34
2022/10/12 07:51:16;;;;;;;13.93;7.07;;;8.00;99.90;;;;;;5049322;28;20192;-34
2022/10/12 07:53:43;;;;;;;12.63;6.73;;;8.10;99.90;;;;;;5049245;28;20318;-34
2022/10/12 07:56:15;;;;;;;15.47;6.77;;;8.10;99.90;;;;;;5048920;28;20211;-34
2022/10/12 07:58:56;;;;;;;13.27;7.00;;;8.20;99.90;;;;;;5048789;28;20189;-34
2022/10/12 08:01:26;;;;;;;13.17;7.70;;;8.30;99.90;;;;;;5063573;28;20295;-34
2022/10/12 08:03:53;;;;;;;12.83;7.30;;;8.40;99.90;;;;;;5049059;28;20224;-34
2022/10/12 08:06:29;;;;;;;17.33;7.23;;;8.40;99.90;;;;;;5048608;28;20246;-34
2022/10/12 08:08:58;;;;;;;13.47;7.50;;;8.50;99.90;;;;;;5048708;28;20295;-34
2022/10/12 08:11:26;;;;;;;13.83;7.27;;;8.60;99.90;;;;;;5047148;28;20572;-34
2022/10/12 08:13:56;;;;;;;15.43;7.77;;;8.70;99.90;;;;;;5048592;28;20291;-34
2022/10/12 08:16:23;;;;;;;13.60;7.30;;;8.80;99.90;;;;;;5047722;28;20200;-34
2022/10/12 08:18:51;;;;;;;12.43;6.93;;;8.90;99.90;;;;;;5046581;28;20259;-34
2022/10/12 08:21:18;;;;;;;12.67;6.97;;;9.00;99.90;;;;;;5048227;28;20210;-34
2022/10/12 08:23:46;;;;;;;11.67;6.90;;;9.10;99.90;;;;;;5048192;28;20220;-34
2022/10/12 08:26:14;;;;;;;10.97;6.40;;;9.20;99.90;;;;;;5048210;28;20192;-34
2022/10/12 08:28:42;;;;;;;15.47;7.30;;;9.30;99.90;;;;;;5046615;28;20208;-34
2022/10/12 08:31:15;;;;;;;13.80;6.90;;;9.40;99.90;;;;;;5048011;28;20283;-35
2022/10/12 08:33:45;;;;;;;16.43;6.27;;;9.40;99.90;;;;;;5048088;28;20231;-34
2022/10/12 08:36:13;;;;;;;10.80;6.30;;;9.60;99.90;;;;;;5046648;28;20631;-34
2022/10/12 08:38:42;;;;;;;16.27;6.70;;;9.60;99.90;;;;;;5048006;28;20887;-34
2022/10/12 08:41:35;;;;;;;12.97;6.43;;;9.70;99.90;;;;;;5048090;28;20203;-35
2022/10/12 08:44:11;;;;;;;15.70;6.83;;;9.80;99.90;;;;;;5047974;28;20538;-34
2022/10/12 08:46:39;;;;;;;11.87;6.43;;;9.90;99.90;;;;;;5048070;28;20287;-34
2022/10/12 08:49:17;;;;;;;12.50;5.97;;;10.00;99.90;;;;;;5047860;28;20235;-34
2022/10/12 08:51:52;;;;;;;18.17;7.10;;;10.10;99.90;;;;;;5047644;28;20275;-34
2022/10/12 08:54:23;;;;;;;10.13;6.00;;;10.10;99.90;;;;;;5047844;28;20578;-34
2022/10/12 08:56:54;;;;;;;11.63;6.20;;;10.20;99.90;;;;;;5048029;28;20215;-34
2022/10/12 08:59:22;;;;;;;12.47;6.27;;;10.30;99.90;;;;;;5047830;28;20212;-34
2022/10/12 09:01:59;;;;;;;15.80;6.20;;;10.40;99.90;;;;;;5047467;28;20228;-34
2022/10/12 09:04:42;;;;;;;9.27;6.30;;;10.50;99.90;;;;;;5047612;28;20738;-34
2022/10/12 09:07:24;;;;;;;19.43;6.10;;;10.50;99.90;;;;;;5047782;28;20181;-34
2022/10/12 09:10:04;;;;;;;12.37;6.13;;;10.60;99.90;;;;;;5047724;28;20200;-34
2022/10/12 09:12:43;;;;;;;10.37;6.00;;;10.70;99.90;;;;;;5046268;28;20243;-34
2022/10/12 09:15:34;;;;;;;15.03;6.27;;;10.70;99.90;;;;;;5047613;28;20303;-34
2022/10/12 09:18:05;;;;;;;11.13;5.50;;;10.80;99.90;;;;;;5047618;28;20851;-34
2022/10/12 09:20:43;;;;;;;12.73;5.90;;;10.80;99.90;;;;;;5045853;28;20227;-33
2022/10/12 09:23:38;;;;;;;11.47;6.43;;;10.90;99.90;;;;;;5047420;28;20723;-33
2022/10/12 09:26:19;;;;;;;13.03;6.40;;;10.90;99.90;;;;;;5045740;28;20628;-34
2022/10/12 09:28:57;;;;;;;13.20;6.23;;;10.90;99.90;;;;;;5064671;28;20196;-34
2022/10/12 09:31:42;;;;;;;13.23;5.67;;;11.00;99.90;;;;;;5050311;28;20697;-34
2022/10/12 09:34:10;;;;;;;11.77;6.23;;;11.10;99.90;;;;;;5051731;28;20188;-33
2022/10/12 09:36:44;;;;;;;12.13;5.63;;;11.10;99.90;;;;;;5051488;28;20671;-34
2022/10/12 09:39:29;;;;;;;12.27;6.23;;;11.10;99.90;;;;;;5051734;28;20745;-34
2022/10/12 09:41:56;;;;;;;11.00;6.20;;;11.10;99.90;;;;;;5051371;28;20235;-34
2022/10/12 09:44:30;;;;;;;16.00;5.97;;;11.20;99.90;;;;;;5050048;28;20293;-34
2022/10/12 09:47:01;;;;;;;9.73;5.87;;;11.20;99.90;;;;;;5051222;28;20622;-34
2022/10/12 09:49:50;;;;;;;16.20;5.90;;;11.30;99.90;;;;;;5051199;28;20623;-33
2022/10/12 09:52:23;;;;;;;8.90;5.53;;;11.40;99.90;;;;;;5051174;28;20204;-33
2022/10/12 09:55:00;;;;;;;10.13;5.53;;;11.40;99.90;;;;;;5051302;28;20219;-33
2022/10/12 09:57:40;;;;;;;10.23;5.70;;;11.50;99.90;;;;;;5049897;28;20202;-33
2022/10/12 10:00:24;;;;;;;8.30;5.60;;;11.60;99.90;;;;;;5051255;28;20249;-34
2022/10/12 10:02:53;;;;;;;10.10;5.13;;;11.70;99.90;;;;;;5050916;28;20216;-33
2022/10/12 10:05:34;;;;;;;14.00;5.43;;;11.70;99.90;;;;;;5050919;28;20319;-34
2022/10/12 10:08:18;;;;;;;8.87;5.40;;;11.80;99.90;;;;;;5050786;28;20211;-33
2022/10/12 10:10:52;;;;;;;12.17;5.57;;;11.90;99.90;;;;;;5050811;28;20220;-33
2022/10/12 10:13:21;;;;;;;12.83;5.83;;;12.00;99.90;;;;;;5051457;28;20228;-33
2022/10/12 10:15:51;;;;;;;10.43;5.50;;;12.10;99.90;;;;;;5050918;28;20695;-33
2022/10/12 10:18:33;;;;;;;10.17;4.97;;;12.20;99.90;;;;;;5051218;28;20282;-33
2022/10/12 10:21:05;;;;;;;7.23;4.57;;;12.30;99.90;;;;;;5050717;28;20224;-33
2022/10/12 10:23:41;;;;;;;8.73;4.40;;;12.40;99.90;;;;;;5050670;28;20275;-34
2022/10/12 10:26:13;;;;;;;12.33;5.03;;;12.50;99.90;;;;;;5050964;28;20279;-34
2022/10/12 10:28:49;;;;;;;10.70;4.77;;;12.70;99.90;;;;;;5049163;28;20215;-34
2022/10/12 10:31:28;;;;;;;9.73;4.97;;;12.80;99.90;;;;;;5050767;28;20311;-34
2022/10/12 10:34:19;;;;;;;9.27;4.57;;;12.90;99.90;;;;;;5050433;28;20210;-34
2022/10/12 10:36:55;;;;;;;9.17;4.30;;;13.00;99.90;;;;;;5050351;28;20196;-34
2022/10/12 10:39:43;;;;;;;10.10;4.07;;;13.10;99.90;;;;;;5049485;28;20196;-34
2022/10/12 10:42:17;;;;;;;8.60;3.53;;;13.20;99.90;;;;;;5050037;28;20203;-34
2022/10/12 10:44:55;;;;;;;9.43;3.90;;;13.30;99.90;;;;;;5050219;28;20868;-34
2022/10/12 10:47:23;;;;;;;10.63;3.73;;;13.40;99.90;;;;;;5049947;28;20279;-34
2022/10/12 10:49:58;;;;;;;7.47;3.10;;;13.50;99.90;;;;;;5050625;28;20209;-34
2022/10/12 10:52:32;;;;;;;7.33;3.90;;;13.60;99.90;;;;;;5050125;28;20190;-34
2022/10/12 10:55:05;;;;;;;7.07;3.20;;;13.60;99.90;;;;;;5049679;28;20239;-34
2022/10/12 10:57:34;;;;;;;7.23;2.90;;;13.70;99.90;;;;;;5048363;28;20189;-34
2022/10/12 11:00:10;;;;;;;9.70;3.80;;;13.80;99.90;;;;;;5049668;28;20213;-35
2022/10/12 11:03:04;;;;;;;9.03;3.63;;;13.90;99.90;;;;;;5049986;28;20203;-35
2022/10/12 11:05:49;;;;;;;7.87;3.53;;;14.00;99.90;;;;;;5049719;28;20247;-34
2022/10/12 11:08:23;;;;;;;7.77;3.67;;;14.00;99.90;;;;;;5064813;28;20209;-35
2022/10/12 11:10:56;;;;;;;5.07;2.93;;;14.10;99.90;;;;;;5049512;28;20705;-34
2022/10/12 11:13:32;;;;;;;6.37;3.00;;;14.20;99.90;;;;;;5064183;28;20192;-34
2022/10/12 11:16:23;;;;;;;8.50;3.40;;;14.30;99.90;;;;;;5049653;28;20204;-34
2022/10/12 11:18:57;;;;;;;3.73;2.87;;;14.40;99.90;;;;;;5049142;28;20244;-34
2022/10/12 11:21:59;;;;;;;7.80;3.17;;;14.50;99.90;;;;;;5049098;28;20208;-34
2022/10/12 11:25:01;;;;;;;7.07;2.60;;;14.60;99.90;;;;;;5036478;28;20705;-33
2022/10/12 11:27:36;;;;;;;8.47;2.90;;;14.70;99.90;;;;;;5049567;28;20200;-33
2022/10/12 11:30:13;;;;;;;4.67;2.63;;;14.80;99.90;;;;;;5049207;28;20222;-33
2022/10/12 11:32:45;;;;;;;9.07;3.70;;;14.90;99.90;;;;;;5049029;28;20223;-33
2022/10/12 11:35:23;;;;;;;7.17;2.50;;;15.10;99.90;;;;;;5048829;28;20549;-33
2022/10/12 11:37:56;;;;;;;5.83;2.80;;;15.20;99.90;;;;;;5049030;28;20197;-33
2022/10/12 11:40:46;;;;;;;7.73;2.77;;;15.30;99.90;;;;;;5048830;28;20207;-33
2022/10/12 11:43:40;;;;;;;7.63;2.93;;;15.40;99.90;;;;;;5049050;28;20258;-33
2022/10/12 11:46:13;;;;;;;11.13;3.50;;;15.60;99.90;;;;;;5048731;28;20339;-33
2022/10/12 11:48:42;;;;;;;8.33;3.10;;;15.70;99.90;;;;;;5048557;28;20188;-33
2022/10/12 11:51:11;;;;;;;8.63;3.10;;;15.80;99.90;;;;;;5048664;28;20212;-33
2022/10/12 11:54:02;;;;;;;12.20;3.47;;;15.90;99.90;;;;;;5049072;28;20593;-33
2022/10/12 11:56:48;;;;;;;7.40;3.57;;;16.00;99.90;;;;;;5049254;28;20679;-33
2022/10/12 11:59:18;;;;;;;7.63;3.57;;;16.00;99.90;;;;;;5048614;28;20633;-33
2022/10/12 12:02:02;;;;;;;9.27;3.90;;;16.10;99.90;;;;;;5048704;28;20192;-33
2022/10/12 12:04:34;;;;;;;7.87;4.37;;;16.20;99.90;;;;;;5048593;28;20634;-33
2022/10/12 12:07:42;;;;;;;10.00;4.70;;;16.20;99.90;;;;;;5049074;28;20246;-33
2022/10/12 12:10:30;;;;;;;15.50;5.07;;;16.20;99.90;;;;;;5048577;28;20197;-33
2022/10/12 12:13:13;;;;;;;7.33;3.77;;;16.30;99.90;;;;;;5048563;28;20539;-33
2022/10/12 12:15:46;;;;;;;5.97;3.57;;;16.30;99.90;;;;;;5048446;28;20299;-33
2022/10/12 12:18:25;;;;;;;12.13;4.53;;;16.30;99.90;;;;;;5048290;28;20251;-33
2022/10/12 12:21:07;;;;;;;9.60;4.43;;;16.40;99.90;;;;;;5048271;28;20215;-33
2022/10/12 12:23:49;;;;;;;9.73;4.40;;;16.40;99.90;;;;;;5048341;28;20291;-33
2022/10/12 12:26:19;;;;;;;11.53;4.50;;;16.40;99.90;;;;;;5046685;28;20307;-33
2022/10/12 12:29:06;;;;;;;11.73;4.40;;;16.50;99.90;;;;;;5048442;28;20231;-33
2022/10/12 12:31:34;;;;;;;9.33;3.83;;;16.50;99.90;;;;;;5063252;28;20281;-33
2022/10/12 12:34:05;;;;;;;9.83;4.77;;;16.50;99.90;;;;;;5048362;28;20204;-33
2022/10/12 12:36:39;;;;;;;8.40;3.97;;;16.60;99.90;;;;;;5048150;28;20299;-33
2022/10/12 12:39:29;;;;;;;9.97;5.10;;;16.60;99.90;;;;;;5048331;28;20203;-33
2022/10/12 12:42:02;;;;;;;9.60;4.07;;;16.70;99.90;;;;;;5048593;28;20192;-33
2022/10/12 12:44:40;;;;;;;9.23;3.87;;;16.70;99.90;;;;;;5048162;28;20552;-33
2022/10/12 12:47:10;;;;;;;9.43;4.40;;;16.80;99.90;;;;;;5046318;28;20219;-33
2022/10/12 12:50:22;;;;;;;12.00;4.10;;;16.80;99.90;;;;;;5046803;28;20219;-33
2022/10/12 12:53:03;;;;;;;8.63;4.17;;;16.90;99.90;;;;;;5047743;28;20288;-33
2022/10/12 12:55:53;;;;;;;8.90;4.10;;;17.00;99.90;;;;;;5062939;28;20877;-33
2022/10/12 12:58:49;;;;;;;6.57;3.77;;;17.10;99.90;;;;;;5047584;28;20204;-33
2022/10/12 13:01:23;;;;;;;11.23;4.63;;;17.20;99.90;;;;;;5045955;28;20223;-34
2022/10/12 13:04:17;;;;;;;7.90;4.00;;;17.20;99.90;;;;;;5047161;28;20204;-33
2022/10/12 13:07:06;;;;;;;10.00;4.27;;;17.30;99.90;;;;;;5047357;28;20180;-33
2022/10/12 13:10:02;;;;;;;15.03;4.77;;;17.40;99.90;;;;;;5046182;28;20564;-33
2022/10/12 13:12:51;;;;;;;9.70;3.80;;;17.50;99.90;;;;;;5046471;28;20808;-33
2022/10/12 13:15:37;;;;;;;10.80;3.90;;;17.50;99.90;;;;;;5047166;28;20303;-33
2022/10/12 13:18:22;;;;;;;7.20;4.07;;;17.50;99.90;;;;;;5047235;28;20231;-33
2022/10/12 13:21:16;;;;;;;9.20;3.53;;;17.50;99.90;;;;;;5046295;28;20204;-33